Time;durP1;ratioP1;P1;durP2;ratioP2;P2;SDS_P1;SDS_P2;PMS_P1;PMS_P2;Temp;Humidity;BMP_temperature;BMP_pressure;BME280_temperature;BME280_humidity;BME280_pressure;Samples;Min_cycle;Max_cycle;Signal;HPM_P1;HPM_P2
2022/09/18 00:01:31;;;;;;;2.80;0.90;;;;;;;8.49;88.91;99498.79;1761984;80;21020;-81
2022/09/18 00:04:01;;;;;;;4.27;1.27;;;;;;;8.52;89.02;99501.27;1762268;80;21088;-81
2022/09/18 00:06:33;;;;;;;2.47;0.90;;;;;;;8.55;89.10;99499.83;1762187;81;21052;-81
2022/09/18 00:09:02;;;;;;;5.13;0.70;;;;;;;8.60;89.29;99502.25;1762199;81;21016;-80
2022/09/18 00:11:36;;;;;;;5.87;1.30;;;;;;;8.63;89.28;99506.88;1740965;81;20988;-81
2022/09/18 00:14:06;;;;;;;4.70;1.37;;;;;;;8.67;89.52;99506.27;1762381;81;20932;-81
2022/09/18 00:16:34;;;;;;;3.65;1.07;;;;;;;8.67;89.28;99500.62;1762183;81;21390;-81
2022/09/18 00:19:02;;;;;;;3.23;0.77;;;;;;;8.70;89.33;99494.38;1749966;81;21152;-81
2022/09/18 00:21:30;;;;;;;3.87;0.70;;;;;;;8.71;89.50;99491.72;1753537;81;20989;-82
2022/09/18 00:24:00;;;;;;;3.30;0.80;;;;;;;8.73;89.50;99489.05;1751859;81;21027;-81
2022/09/18 00:26:28;;;;;;;1.30;0.55;;;;;;;8.74;89.50;99493.81;1752317;81;21016;-81
2022/09/18 00:28:56;;;;;;;1.40;0.53;;;;;;;8.74;89.47;99492.05;1762178;81;21549;-81
2022/09/18 00:31:28;;;;;;;2.97;0.80;;;;;;;8.74;89.44;99478.98;1744831;81;21227;-80
2022/09/18 00:33:59;;;;;;;4.13;1.00;;;;;;;8.74;89.39;99487.28;1762098;81;21525;-80
2022/09/18 00:36:28;;;;;;;1.87;0.70;;;;;;;8.74;89.72;99481.59;1762051;81;20981;-80
2022/09/18 00:38:58;;;;;;;3.13;0.77;;;;;;;8.77;89.78;99483.22;1762323;81;21067;-81
2022/09/18 00:41:30;;;;;;;3.92;0.90;;;;;;;8.78;89.91;99488.83;1761109;81;21616;-81
2022/09/18 00:44:31;;;;;;;2.57;0.70;;;;;;;8.80;90.02;99490.45;1756381;81;21973;-80
2022/09/18 00:47:06;;;;;;;2.50;0.80;;;;;;;8.85;90.22;99499.41;1756553;81;21072;-81
2022/09/18 00:49:34;;;;;;;4.27;1.03;;;;;;;8.85;90.05;99488.50;1753756;81;21005;-80
2022/09/18 00:52:02;;;;;;;3.27;0.80;;;;;;;8.86;90.13;99496.71;1748600;81;21071;-81
2022/09/18 00:54:34;;;;;;;2.90;0.70;;;;;;;8.86;90.15;99489.34;1728093;81;21293;-82
2022/09/18 00:57:09;;;;;;;3.90;0.77;;;;;;;8.89;90.43;99494.42;1735069;81;21125;-81
2022/09/18 00:59:39;;;;;;;3.00;0.70;;;;;;;8.93;90.44;99491.61;1749847;81;21048;-81
2022/09/18 01:02:06;;;;;;;6.42;1.05;;;;;;;8.94;90.33;99491.16;1743090;81;21484;-81
2022/09/18 01:04:34;;;;;;;2.77;0.70;;;;;;;8.93;90.35;99490.31;1756546;81;21028;-81
2022/09/18 01:07:21;;;;;;;4.60;0.90;;;;;;;8.94;90.34;99484.62;1756431;81;21012;-81
2022/09/18 01:10:23;;;;;;;3.83;0.90;;;;;;;8.93;90.36;99476.40;1732924;81;21188;-81
2022/09/18 01:13:00;;;;;;;2.73;0.90;;;;;;;8.95;90.49;99474.55;1745910;81;21490;-81
2022/09/18 01:15:53;;;;;;;2.40;0.67;;;;;;;8.94;90.61;99471.55;1756683;81;21044;-80
2022/09/18 01:18:34;;;;;;;4.03;0.77;;;;;;;8.93;90.58;99470.70;1756070;81;20969;-81
2022/09/18 01:21:14;;;;;;;2.27;0.80;;;;;;;8.92;90.48;99470.33;1756686;81;21000;-80
2022/09/18 01:24:17;;;;;;;4.67;0.78;;;;;;;8.89;90.49;99469.13;1756434;81;21125;-81
2022/09/18 01:26:55;;;;;;;3.77;1.00;;;;;;;8.90;90.72;99477.38;1735294;81;21020;-81
2022/09/18 01:30:01;;;;;;;2.73;0.70;;;;;;;8.89;90.76;99472.21;1756321;81;21012;-80
2022/09/18 01:32:36;;;;;;;2.67;0.70;;;;;;;8.88;90.84;99471.83;1756593;81;21025;-81
2022/09/18 01:35:18;;;;;;;2.97;0.90;;;;;;;8.87;90.85;99471.45;1737127;81;21059;-80
2022/09/18 01:37:56;;;;;;;2.73;0.80;;;;;;;8.86;90.94;99477.11;1756568;81;21111;-81
2022/09/18 01:40:29;;;;;;;3.67;0.90;;;;;;;8.86;91.00;99473.66;1755628;81;20963;-81
2022/09/18 01:43:01;;;;;;;2.00;0.80;;;;;;;8.87;91.11;99473.60;1762109;80;21478;-81
2022/09/18 01:45:33;;;;;;;4.30;1.10;;;;;;;8.88;91.16;99470.53;1764899;81;21063;-81
2022/09/18 01:48:07;;;;;;;1.17;0.70;;;;;;;8.88;91.14;99471.37;1765055;80;21520;-81
2022/09/18 01:50:41;;;;;;;3.40;0.90;;;;;;;8.88;91.10;99464.83;1727928;83;21041;-81
2022/09/18 01:53:13;;;;;;;5.40;0.90;;;;;;;8.89;91.19;99466.98;1726898;83;21454;-81
2022/09/18 01:55:42;;;;;;;1.70;0.83;;;;;;;8.90;91.26;99468.70;1728116;83;21021;-81
2022/09/18 01:58:16;;;;;;;3.20;1.00;;;;;;;8.91;91.37;99463.85;1728484;83;21021;-81
2022/09/18 02:00:48;;;;;;;2.60;1.10;;;;;;;8.91;91.29;99465.16;1707806;83;21089;-82
2022/09/18 02:03:20;;;;;;;2.17;0.70;;;;;;;8.91;91.33;99456.85;1689390;84;21093;-82
2022/09/18 02:06:05;;;;;;;2.67;0.70;;;;;;;8.90;91.27;99461.70;1721432;83;21073;-81
2022/09/18 02:08:48;;;;;;;1.93;0.90;;;;;;;8.87;91.20;99462.31;1728076;82;21033;-81
2022/09/18 02:11:19;;;;;;;1.33;0.70;;;;;;;8.85;91.27;99457.60;1728440;83;21498;-81
2022/09/18 02:13:54;;;;;;;0.90;0.80;;;;;;;8.82;91.38;99455.13;1728745;83;21006;-82
2022/09/18 02:16:34;;;;;;;2.00;1.00;;;;;;;8.84;91.65;99463.73;1727857;83;21308;-81
2022/09/18 02:19:06;;;;;;;1.47;0.70;;;;;;;8.84;91.67;99456.76;1681978;84;21059;-81
2022/09/18 02:21:35;;;;;;;2.27;0.70;;;;;;;8.84;91.73;99454.58;1727493;83;21041;-81
2022/09/18 02:24:08;;;;;;;3.22;0.80;;;;;;;8.84;91.81;99459.37;1702385;83;21278;-81
2022/09/18 02:26:39;;;;;;;1.37;0.80;;;;;;;8.85;91.93;99455.83;1728637;83;21029;-80
2022/09/18 02:29:11;;;;;;;2.20;1.00;;;;;;;8.86;92.01;99456.20;1728712;82;21107;-81
2022/09/18 02:31:39;;;;;;;2.63;0.70;;;;;;;8.88;92.03;99450.92;1703684;83;20964;-83
2022/09/18 02:34:08;;;;;;;3.07;0.80;;;;;;;8.86;92.02;99449.67;1728884;83;21060;-80
2022/09/18 02:36:50;;;;;;;2.65;0.60;;;;;;;8.87;92.04;99442.25;1701688;83;21064;-80
2022/09/18 02:39:37;;;;;;;1.60;0.70;;;;;;;8.88;92.19;99439.17;1727369;83;21599;-80
2022/09/18 02:42:45;;;;;;;2.40;0.50;;;;;;;8.89;92.28;99439.08;1730955;81;21117;-81
2022/09/18 02:45:38;;;;;;;1.57;0.60;;;;;;;8.90;92.39;99434.73;1744238;82;21034;-79
2022/09/18 02:48:30;;;;;;;1.87;0.60;;;;;;;8.90;92.41;99436.03;1639360;86;21552;-81
2022/09/18 02:51:21;;;;;;;1.90;0.90;;;;;;;8.90;92.51;99441.27;1689511;84;21042;-80
2022/09/18 02:54:06;;;;;;;1.37;0.57;;;;;;;8.89;92.63;99438.23;1689355;84;20995;-80
2022/09/18 02:57:02;;;;;;;1.03;0.50;;;;;;;8.90;92.77;99445.18;1689486;84;21117;-80
2022/09/18 02:59:34;;;;;;;1.43;0.50;;;;;;;8.89;92.81;99446.92;1680086;84;21553;-80
2022/09/18 03:02:02;;;;;;;0.97;0.50;;;;;;;8.88;93.01;99447.84;1649063;86;21047;-82
2022/09/18 03:04:31;;;;;;;0.47;0.47;;;;;;;8.88;93.12;99447.01;1658149;86;21024;-81
2022/09/18 03:07:00;;;;;;;0.60;0.50;;;;;;;8.88;93.33;99441.78;1688815;84;21027;-83
2022/09/18 03:09:28;;;;;;;0.80;0.60;;;;;;;8.87;93.45;99440.94;1689388;84;21910;-82
2022/09/18 03:11:56;;;;;;;1.17;0.60;;;;;;;8.86;93.54;99437.91;1689562;84;20938;-82
2022/09/18 03:14:23;;;;;;;1.20;0.70;;;;;;;8.86;93.67;99441.83;1689636;84;20979;-88
2022/09/18 03:16:50;;;;;;;1.03;0.70;;;;;;;8.83;93.57;99434.14;1689352;84;21449;-83
2022/09/18 03:19:17;;;;;;;0.87;0.60;;;;;;;8.84;93.82;99440.20;1689330;84;21039;-82
2022/09/18 03:21:45;;;;;;;0.93;0.80;;;;;;;8.82;93.82;99440.30;1689746;84;21096;-81
2022/09/18 03:24:12;;;;;;;2.17;0.73;;;;;;;8.82;93.74;99446.83;1716784;80;20924;-83
2022/09/18 03:26:40;;;;;;;1.30;0.80;;;;;;;8.81;93.89;99449.49;1756401;81;21024;-83
2022/09/18 03:29:08;;;;;;;0.67;0.57;;;;;;;8.79;93.71;99448.27;1756681;81;21056;-81
2022/09/18 03:31:35;;;;;;;4.37;0.80;;;;;;;8.76;93.79;99448.41;1756325;81;21012;-81
2022/09/18 03:34:04;;;;;;;1.53;0.70;;;;;;;8.77;93.84;99451.87;1756338;81;21233;-82
2022/09/18 03:36:32;;;;;;;1.70;0.60;;;;;;;8.77;93.93;99447.95;1756509;81;21008;-82
2022/09/18 03:39:00;;;;;;;1.00;0.60;;;;;;;8.78;94.02;99443.10;1756603;81;21072;-85
2022/09/18 03:41:27;;;;;;;1.33;0.70;;;;;;;8.82;94.26;99444.67;1756405;81;21000;-82
2022/09/18 03:43:56;;;;;;;1.03;0.67;;;;;;;8.84;94.45;99452.84;1761098;81;20968;-82
2022/09/18 03:46:23;;;;;;;0.93;0.70;;;;;;;8.86;94.32;99449.67;1762098;81;21288;-82
2022/09/18 03:48:52;;;;;;;2.03;0.50;;;;;;;8.86;94.26;99448.37;1761894;81;21401;-82
2022/09/18 03:51:21;;;;;;;1.97;0.63;;;;;;;8.87;94.46;99448.78;1761959;81;21004;-83
2022/09/18 03:53:52;;;;;;;1.00;0.53;;;;;;;8.88;94.37;99453.08;1762012;81;20985;-83
2022/09/18 03:56:28;;;;;;;1.67;0.70;;;;;;;8.90;94.44;99448.63;1762040;81;21497;-82
2022/09/18 03:59:10;;;;;;;0.63;0.63;;;;;;;8.93;94.61;99451.57;1757462;81;22036;-82
2022/09/18 04:01:38;;;;;;;1.90;1.00;;;;;;;8.93;94.47;99447.66;1744476;81;21004;-82
2022/09/18 04:04:24;;;;;;;1.67;0.90;;;;;;;8.93;94.33;99448.95;1762095;81;21004;-82
2022/09/18 04:07:04;;;;;;;2.97;1.20;;;;;;;8.90;94.37;99450.41;1762074;81;21040;-82
2022/09/18 04:09:49;;;;;;;2.80;1.07;;;;;;;8.93;94.59;99451.57;1762127;81;21028;-82
2022/09/18 04:12:16;;;;;;;1.93;1.10;;;;;;;8.93;94.57;99452.87;1762091;81;21759;-81
2022/09/18 04:14:45;;;;;;;1.10;0.80;;;;;;;8.93;94.50;99451.57;1762174;81;21020;-81
2022/09/18 04:17:12;;;;;;;2.13;0.90;;;;;;;8.94;94.75;99452.80;1744727;81;20996;-82
2022/09/18 04:19:41;;;;;;;1.50;0.90;;;;;;;8.94;94.74;99445.41;1762091;81;21008;-82
2022/09/18 04:22:09;;;;;;;1.43;0.70;;;;;;;8.96;94.75;99452.73;1762028;81;21063;-82
2022/09/18 04:24:38;;;;;;;2.57;0.97;;;;;;;8.97;94.79;99450.97;1762051;81;21194;-81
2022/09/18 04:27:06;;;;;;;0.80;0.70;;;;;;;8.98;94.76;99449.60;1761925;81;21019;-82
2022/09/18 04:29:34;;;;;;;1.27;0.73;;;;;;;8.99;94.67;99459.13;1761970;81;21000;-83
2022/09/18 04:32:01;;;;;;;1.90;0.77;;;;;;;9.00;94.82;99454.27;1762141;81;20992;-81
2022/09/18 04:34:29;;;;;;;1.50;0.60;;;;;;;9.01;94.73;99458.61;1761959;81;21020;-81
2022/09/18 04:36:56;;;;;;;0.50;0.50;;;;;;;9.02;94.63;99460.29;1762353;81;21019;-81
2022/09/18 04:39:24;;;;;;;1.60;0.83;;;;;;;9.02;94.71;99460.75;1761954;81;21098;-82
2022/09/18 04:41:52;;;;;;;0.93;0.70;;;;;;;9.05;95.18;99460.61;1740872;81;21011;-81
2022/09/18 04:44:19;;;;;;;1.00;0.80;;;;;;;9.09;95.18;99462.16;1764603;80;21525;-82
2022/09/18 04:46:46;;;;;;;0.93;0.60;;;;;;;9.11;95.13;99460.32;1765275;81;21008;-82
2022/09/18 04:49:14;;;;;;;2.53;0.80;;;;;;;9.12;94.94;99462.04;1764984;81;21098;-81
2022/09/18 04:51:41;;;;;;;1.67;0.70;;;;;;;9.12;94.91;99464.66;1681581;83;21047;-82
2022/09/18 04:54:09;;;;;;;0.97;0.70;;;;;;;9.12;94.89;99464.19;1728328;83;21005;-82
2022/09/18 04:56:36;;;;;;;1.67;0.77;;;;;;;9.13;95.05;99468.48;1728556;83;21058;-81
2022/09/18 04:59:03;;;;;;;3.57;0.80;;;;;;;9.15;94.97;99472.35;1725215;82;21498;-82
2022/09/18 05:01:32;;;;;;;2.87;0.80;;;;;;;9.15;94.94;99465.81;1711565;83;21295;-81
2022/09/18 05:03:59;;;;;;;1.10;1.00;;;;;;;9.16;95.14;99471.42;1728469;83;20937;-81
2022/09/18 05:06:28;;;;;;;1.47;0.83;;;;;;;9.20;95.33;99474.73;1727041;83;20998;-82
2022/09/18 05:08:57;;;;;;;2.17;0.90;;;;;;;9.23;95.47;99470.23;1728613;82;21547;-81
2022/09/18 05:11:24;;;;;;;5.00;1.10;;;;;;;9.24;95.32;99466.69;1707695;83;21017;-82
2022/09/18 05:13:55;;;;;;;3.30;1.17;;;;;;;9.30;95.71;99472.09;1728591;83;21126;-81
2022/09/18 05:16:24;;;;;;;1.50;1.07;;;;;;;9.32;95.44;99471.56;1728329;83;21009;-81
2022/09/18 05:18:53;;;;;;;1.90;1.10;;;;;;;9.32;95.42;99468.48;1725184;83;21456;-81
2022/09/18 05:21:20;;;;;;;2.43;1.37;;;;;;;9.33;95.42;99468.86;1701490;83;21080;-81
2022/09/18 05:23:47;;;;;;;2.30;1.20;;;;;;;9.37;95.73;99470.44;1728282;82;21295;-81
2022/09/18 05:26:15;;;;;;;1.37;1.10;;;;;;;9.42;95.72;99463.66;1728179;82;21885;-81
2022/09/18 05:28:43;;;;;;;3.00;1.20;;;;;;;9.43;95.48;99469.77;1728273;83;20966;-81
2022/09/18 05:31:10;;;;;;;4.03;1.30;;;;;;;9.43;95.53;99466.68;1728283;82;21476;-83
2022/09/18 05:33:40;;;;;;;2.47;1.20;;;;;;;9.46;95.47;99472.23;1727803;83;21061;-85
2022/09/18 05:36:08;;;;;;;2.13;1.30;;;;;;;9.46;95.51;99477.46;1728425;82;21077;-85
2022/09/18 05:38:35;;;;;;;3.80;1.50;;;;;;;9.43;95.76;99471.91;1728366;82;21131;-85
2022/09/18 05:41:03;;;;;;;3.23;1.67;;;;;;;9.46;96.08;99478.30;1727915;82;21066;-85
2022/09/18 05:43:31;;;;;;;3.30;1.43;;;;;;;9.47;96.04;99476.53;1733240;81;21028;-86
2022/09/18 05:46:01;;;;;;;3.00;1.40;;;;;;;9.47;95.88;99473.91;1733255;81;21041;-80
2022/09/18 05:48:30;;;;;;;3.20;1.80;;;;;;;9.45;96.08;99477.05;1712505;82;21021;-85
2022/09/18 05:50:58;;;;;;;8.73;1.70;;;;;;;9.44;95.95;99482.75;1722465;82;21585;-87
2022/09/18 05:53:25;;;;;;;3.77;1.73;;;;;;;9.44;96.23;99481.44;1714894;82;21028;-86
2022/09/18 05:55:54;;;;;;;2.67;1.63;;;;;;;9.44;96.09;99479.29;1672612;82;21028;-84
2022/09/18 05:58:22;;;;;;;3.67;1.90;;;;;;;9.47;96.47;99479.14;1718685;82;21578;-83
2022/09/18 06:00:51;;;;;;;3.20;1.70;;;;;;;9.52;96.61;99483.70;1713914;82;21115;-80
2022/09/18 06:03:20;;;;;;;3.10;1.90;;;;;;;9.53;96.66;99481.03;1724474;82;23033;-91
2022/09/18 06:05:54;;;;;;;4.40;2.13;;;;;;;9.56;96.60;99486.11;1712596;82;21565;-85
2022/09/18 06:08:21;;;;;;;2.67;1.90;;;;;;;9.57;96.57;99480.41;1725568;82;21052;-84
2022/09/18 06:10:49;;;;;;;4.10;2.13;;;;;;;9.58;96.61;99477.70;1725594;82;21099;-83
2022/09/18 06:13:17;;;;;;;4.50;2.10;;;;;;;9.62;97.03;99482.36;1725694;82;21032;-86
2022/09/18 06:15:50;;;;;;;5.12;2.47;;;;;;;9.69;97.31;99481.59;1724883;82;21136;-82
2022/09/18 06:18:20;;;;;;;3.97;2.47;;;;;;;9.75;97.00;99483.91;1709983;82;21538;-81
2022/09/18 06:20:56;;;;;;;4.67;2.70;;;;;;;9.75;96.70;99482.59;1727543;82;21344;-83
2022/09/18 06:23:27;;;;;;;3.50;2.33;;;;;;;9.81;97.34;99483.63;1729009;82;21056;-76
2022/09/18 06:26:03;;;;;;;3.53;2.67;;;;;;;9.88;97.28;99492.02;1717901;82;21525;-82
2022/09/18 06:28:33;;;;;;;4.63;2.50;;;;;;;9.91;97.11;99484.86;1731503;82;22073;-80
2022/09/18 06:31:04;;;;;;;3.43;2.30;;;;;;;9.94;97.00;99496.48;1722224;82;21041;-86
2022/09/18 06:33:35;;;;;;;2.83;2.27;;;;;;;9.98;96.87;99494.59;1728017;82;21040;-85
2022/09/18 06:36:07;;;;;;;3.70;2.70;;;;;;;10.01;96.96;99495.27;1715321;82;21092;-85
2022/09/18 06:38:33;;;;;;;5.90;2.70;;;;;;;10.09;97.19;99494.91;1712755;82;21088;-89
2022/09/18 06:41:00;;;;;;;3.47;2.80;;;;;;;10.13;96.84;99492.97;1718407;82;21203;-85
2022/09/18 06:43:29;;;;;;;3.70;2.90;;;;;;;10.15;97.00;99493.75;1715275;82;21014;-89
2022/09/18 06:46:01;;;;;;;4.77;3.20;;;;;;;10.20;97.06;99493.06;1716528;81;21627;-86
2022/09/18 06:48:30;;;;;;;4.97;3.57;;;;;;;10.25;96.97;99498.89;1732140;81;21520;-85
2022/09/18 06:50:58;;;;;;;4.63;3.30;;;;;;;10.27;96.73;99488.77;1734020;81;21530;-85
2022/09/18 06:53:26;;;;;;;6.27;3.17;;;;;;;10.38;97.29;99488.69;1735496;81;21394;-83
2022/09/18 06:56:00;;;;;;;3.90;3.30;;;;;;;10.46;97.35;99484.75;1723884;81;21917;-79
2022/09/18 06:58:28;;;;;;;3.20;2.90;;;;;;;10.54;97.27;99486.14;1736375;81;21039;-85
2022/09/18 07:00:59;;;;;;;5.10;3.00;;;;;;;10.58;97.07;99488.97;1733484;81;21040;-81
2022/09/18 07:03:28;;;;;;;4.20;2.75;;;;;;;10.63;97.16;99495.67;1743850;81;21032;-82
2022/09/18 07:06:00;;;;;;;3.20;2.53;;;;;;;10.59;96.75;99500.70;1741617;81;21134;-82
2022/09/18 07:08:29;;;;;;;4.50;3.22;;;;;;;10.47;96.79;99507.42;1738607;81;21997;-80
2022/09/18 07:11:01;;;;;;;3.87;2.42;;;;;;;10.40;97.06;99513.89;1739491;81;21103;-81
2022/09/18 07:13:33;;;;;;;3.15;2.17;;;;;;;10.31;96.99;99516.10;1738685;81;21035;-87
2022/09/18 07:16:00;;;;;;;1.52;1.00;;;;;;;10.18;97.11;99523.24;1740179;81;21043;-86
2022/09/18 07:18:28;;;;;;;1.25;0.90;;;;;;;10.04;96.57;99522.61;1738448;81;21131;-84
2022/09/18 07:21:00;;;;;;;1.22;1.00;;;;;;;9.89;96.65;99523.80;1741109;81;21079;-87
2022/09/18 07:23:34;;;;;;;2.27;0.90;;;;;;;9.78;97.04;99523.88;1740243;81;21044;-88
2022/09/18 07:26:04;;;;;;;1.47;0.90;;;;;;;9.70;97.18;99524.70;1742354;81;21012;-89
2022/09/18 07:28:33;;;;;;;0.77;0.70;;;;;;;9.64;97.57;99523.66;1737846;81;21342;-83
2022/09/18 07:31:04;;;;;;;1.62;1.10;;;;;;;9.61;98.09;99528.58;1728731;80;21036;-82
2022/09/18 07:33:31;;;;;;;1.10;0.90;;;;;;;9.58;98.37;99530.03;1744624;80;21004;-83
2022/09/18 07:36:03;;;;;;;2.30;1.10;;;;;;;9.58;98.56;99518.72;1743445;81;21505;-85
2022/09/18 07:38:36;;;;;;;2.40;1.00;;;;;;;9.60;98.91;99524.74;1747535;81;21012;-85
2022/09/18 07:41:04;;;;;;;1.30;1.00;;;;;;;9.63;99.24;99525.06;1738020;81;21241;-81
2022/09/18 07:43:33;;;;;;;2.50;1.60;;;;;;;9.71;99.84;99528.16;1742174;81;21173;-84
2022/09/18 07:46:01;;;;;;;1.90;1.40;;;;;;;9.78;99.87;99523.01;1732055;81;21040;-85
2022/09/18 07:48:30;;;;;;;2.02;1.40;;;;;;;9.85;100.00;99537.98;1734077;81;21317;-84
2022/09/18 07:50:59;;;;;;;2.57;1.50;;;;;;;9.93;100.00;99531.91;1737346;81;21019;-84
2022/09/18 07:53:28;;;;;;;4.70;1.60;;;;;;;9.95;100.00;99535.28;1739743;81;21075;-89
2022/09/18 07:55:56;;;;;;;;;;;;;;;9.91;99.74;99541.14;1740432;81;21159;-88
2022/09/18 07:58:24;;;;;;;2.07;0.80;;;;;;;9.89;99.83;99546.89;1718357;81;20170;-85
2022/09/18 08:00:54;;;;;;;2.67;0.93;;;;;;;9.90;100.00;99548.61;1737053;81;21044;-90
2022/09/18 08:03:24;;;;;;;1.30;1.10;;;;;;;9.93;100.00;99551.08;1737936;81;21043;-85
2022/09/18 08:06:02;;;;;;;2.10;0.93;;;;;;;9.94;100.00;99549.30;1738543;81;21412;-83
2022/09/18 08:08:30;;;;;;;0.83;0.73;;;;;;;9.96;100.00;99553.55;1738342;81;21154;-82
2022/09/18 08:11:04;;;;;;;1.77;0.83;;;;;;;9.99;100.00;99558.63;1736923;81;21107;-87
2022/09/18 08:13:36;;;;;;;1.00;0.70;;;;;;;9.99;100.00;99563.87;1676466;81;21040;-84
2022/09/18 08:16:12;;;;;;;1.33;0.60;;;;;;;9.97;99.96;99575.33;1729212;81;21020;-85
2022/09/18 08:18:56;;;;;;;3.13;0.80;;;;;;;9.89;99.56;99574.37;1736382;81;21017;-86
2022/09/18 08:21:42;;;;;;;2.53;0.77;;;;;;;9.81;99.71;99574.77;1735569;81;21148;-87
2022/09/18 08:24:10;;;;;;;3.17;0.80;;;;;;;9.82;100.00;99578.23;1737227;81;21055;-86
2022/09/18 08:26:38;;;;;;;1.43;1.00;;;;;;;9.84;100.00;99575.09;1735330;81;21043;-86
2022/09/18 08:29:06;;;;;;;2.70;1.30;;;;;;;9.87;100.00;99568.86;1735063;81;21071;-80
2022/09/18 08:31:33;;;;;;;2.27;1.30;;;;;;;9.93;100.00;99584.27;1724516;81;21279;-81
2022/09/18 08:34:03;;;;;;;3.87;1.10;;;;;;;9.91;100.00;99573.02;1724366;81;21191;-84
2022/09/18 08:36:32;;;;;;;2.87;1.30;;;;;;;9.88;100.00;99581.02;1741169;81;21075;-82
2022/09/18 08:39:10;;;;;;;3.50;1.00;;;;;;;9.85;100.00;99574.16;1729076;81;21036;-81
2022/09/18 08:42:02;;;;;;;3.53;1.20;;;;;;;9.81;100.00;99580.00;1741202;81;21449;-83
2022/09/18 08:44:42;;;;;;;2.47;1.10;;;;;;;9.78;100.00;99584.08;1720515;82;21220;-84
2022/09/18 08:47:21;;;;;;;6.60;1.50;;;;;;;9.73;100.00;99588.67;1723617;81;21220;-80
2022/09/18 08:49:58;;;;;;;4.27;1.33;;;;;;;9.70;100.00;99587.94;1744863;81;21477;-83
2022/09/18 08:52:30;;;;;;;5.27;1.60;;;;;;;9.65;100.00;99582.94;1742692;81;21494;-83
2022/09/18 08:55:07;;;;;;;6.30;1.60;;;;;;;9.65;100.00;99585.56;1742858;81;21111;-84
2022/09/18 08:57:47;;;;;;;4.90;1.63;;;;;;;9.65;100.00;99597.33;1730773;81;21031;-87
2022/09/18 09:00:34;;;;;;;5.67;3.03;;;;;;;9.63;100.00;99600.94;1729396;81;21587;-87
2022/09/18 09:04:05;;;;;;;9.03;2.30;;;;;;;9.65;100.00;99591.25;1710689;81;21537;-82
2022/09/18 09:07:27;;;;;;;9.03;2.63;;;;;;;9.71;100.00;99597.51;1728746;81;21510;-80
2022/09/18 09:10:24;;;;;;;7.33;2.30;;;;;;;9.81;100.00;99587.02;1724883;81;21615;-93
2022/09/18 09:13:30;;;;;;;7.73;1.83;;;;;;;9.83;100.00;99600.38;1742520;81;21028;-83
2022/09/18 09:16:09;;;;;;;8.23;3.17;;;;;;;9.88;100.00;99600.64;1744328;81;22097;-81
2022/09/18 09:18:50;;;;;;;5.05;1.25;;;;;;;9.87;100.00;99597.65;1739956;81;21056;-82
2022/09/18 09:21:26;;;;;;;6.70;2.05;;;;;;;9.87;100.00;99606.34;1727957;81;20992;-78
2022/09/18 09:24:20;;;;;;;10.03;4.13;;;;;;;9.93;100.00;99612.59;1737194;81;21024;-84
2022/09/18 09:27:30;;;;;;;6.65;1.98;;;;;;;9.95;100.00;99617.31;1722380;81;21141;-78
2022/09/18 09:30:19;;;;;;;8.28;3.40;;;;;;;10.01;100.00;99611.78;1736057;81;21027;-85
2022/09/18 09:33:05;;;;;;;6.08;1.80;;;;;;;10.09;100.00;99621.02;1669687;81;21047;-89
2022/09/18 09:35:57;;;;;;;5.87;1.87;;;;;;;10.11;100.00;99622.64;1719442;81;21685;-85
2022/09/18 09:38:50;;;;;;;6.47;1.75;;;;;;;10.11;100.00;99623.95;1729223;81;21127;-89
2022/09/18 09:41:26;;;;;;;9.73;3.80;;;;;;;10.14;100.00;99623.84;1744647;81;21294;-84
2022/09/18 09:44:16;;;;;;;5.80;2.30;;;;;;;10.14;100.00;99630.81;1738995;81;21262;-83
2022/09/18 09:47:04;;;;;;;6.33;1.90;;;;;;;10.15;100.00;99640.39;1690404;82;21096;-85
2022/09/18 09:50:08;;;;;;;6.05;2.00;;;;;;;10.13;100.00;99640.92;1693022;82;21147;-89
2022/09/18 09:52:42;;;;;;;5.97;1.47;;;;;;;10.04;100.00;99640.43;1691806;82;21056;-79
2022/09/18 09:55:34;;;;;;;10.63;3.00;;;;;;;9.94;100.00;99645.70;1681548;83;21051;-79
2022/09/18 09:58:45;;;;;;;4.87;1.87;;;;;;;9.90;100.00;99654.62;1638549;85;21070;-86
2022/09/18 10:01:27;;;;;;;4.75;1.87;;;;;;;9.85;100.00;99655.30;1639691;86;21349;-86
2022/09/18 10:04:20;;;;;;;7.10;2.45;;;;;;;9.83;100.00;99658.43;1702967;83;21501;-81
2022/09/18 10:07:05;;;;;;;6.55;1.87;;;;;;;9.84;100.00;99665.38;1668305;85;21529;-91
2022/09/18 10:09:57;;;;;;;6.83;1.87;;;;;;;9.81;100.00;99668.14;1676703;83;21063;-84
2022/09/18 10:12:42;;;;;;;7.57;2.10;;;;;;;9.77;100.00;99667.88;1683247;82;21926;-82
2022/09/18 10:15:27;;;;;;;7.93;2.07;;;;;;;9.71;100.00;99679.94;1692000;82;21063;-80
2022/09/18 10:17:59;;;;;;;6.40;1.70;;;;;;;9.69;100.00;99675.22;1686389;83;21508;-80
2022/09/18 10:20:31;;;;;;;8.38;1.92;;;;;;;9.74;100.00;99674.56;1671715;84;21524;-82
2022/09/18 10:23:05;;;;;;;7.87;1.80;;;;;;;9.74;100.00;99683.72;1706642;81;21039;-82
2022/09/18 10:25:40;;;;;;;9.87;2.00;;;;;;;9.77;100.00;99683.58;1755698;81;21792;-81
2022/09/18 10:28:13;;;;;;;10.67;2.00;;;;;;;9.82;100.00;99683.76;1756233;81;20981;-81
2022/09/18 10:31:04;;;;;;;7.20;1.70;;;;;;;9.82;100.00;99678.99;1756291;81;21421;-79
2022/09/18 10:33:38;;;;;;;5.53;1.70;;;;;;;9.81;100.00;99686.47;1756485;81;21024;-82
2022/09/18 10:36:29;;;;;;;7.53;1.93;;;;;;;9.84;100.00;99690.25;1756335;81;21033;-80
2022/09/18 10:38:59;;;;;;;8.87;2.03;;;;;;;9.90;100.00;99693.05;1723068;81;21008;-80
2022/09/18 10:41:39;;;;;;;11.23;2.27;;;;;;;9.92;100.00;99699.03;1755848;81;20996;-80
2022/09/18 10:44:23;;;;;;;10.53;2.00;;;;;;;9.94;100.00;99698.52;1756118;81;21029;-77
2022/09/18 10:47:04;;;;;;;12.53;2.10;;;;;;;9.98;100.00;99700.09;1761889;81;21020;-80
2022/09/18 10:49:51;;;;;;;10.13;1.70;;;;;;;10.00;100.00;99701.72;1756490;81;21012;-79
2022/09/18 10:52:45;;;;;;;6.30;1.63;;;;;;;10.00;100.00;99699.54;1755174;81;21053;-80
2022/09/18 10:55:22;;;;;;;10.35;2.30;;;;;;;10.00;100.00;99699.54;1721179;81;20971;-80
2022/09/18 10:58:12;;;;;;;10.43;2.20;;;;;;;10.12;100.00;99704.70;1756233;81;21015;-88
2022/09/18 11:01:01;;;;;;;11.25;2.15;;;;;;;10.20;100.00;99703.41;1734979;81;21044;-78
2022/09/18 11:03:58;;;;;;;11.93;1.40;;;;;;;10.35;100.00;99708.88;1756463;81;21004;-80
2022/09/18 11:06:30;;;;;;;10.13;1.70;;;;;;;10.45;100.00;99697.05;1756612;81;21120;-80
2022/09/18 11:09:01;;;;;;;11.85;1.98;;;;;;;10.55;100.00;99696.98;1756094;81;21051;-85
2022/09/18 11:11:36;;;;;;;7.53;1.52;;;;;;;10.66;100.00;99694.69;1755917;81;21363;-77
2022/09/18 11:14:19;;;;;;;8.13;1.50;;;;;;;10.78;100.00;99690.64;1755562;81;21087;-83
2022/09/18 11:16:52;;;;;;;8.58;1.45;;;;;;;10.85;100.00;99692.48;1738601;81;21420;-93
2022/09/18 11:19:29;;;;;;;8.05;1.42;;;;;;;11.03;100.00;99699.45;1756679;81;21110;-82
2022/09/18 11:22:03;;;;;;;6.42;1.47;;;;;;;11.18;100.00;99706.16;1710987;83;21019;-85
2022/09/18 11:24:36;;;;;;;8.10;1.72;;;;;;;11.27;100.00;99703.90;1750573;81;21008;-85
2022/09/18 11:27:22;;;;;;;9.50;1.85;;;;;;;11.34;100.00;99698.73;1756110;81;21017;-81
2022/09/18 11:29:51;;;;;;;8.18;1.37;;;;;;;11.41;99.37;99698.41;1721992;81;21042;-87
2022/09/18 11:32:30;;;;;;;7.83;1.62;;;;;;;11.46;98.85;99699.88;1756578;81;20981;-75
2022/09/18 11:35:06;;;;;;;19.60;2.35;;;;;;;11.52;98.60;99702.64;1756112;81;21016;-78
2022/09/18 11:37:41;;;;;;;5.70;1.50;;;;;;;11.64;98.43;99698.08;1728891;81;21098;-80
2022/09/18 11:40:35;;;;;;;8.23;1.60;;;;;;;11.75;98.58;99695.73;1756501;81;20998;-81
2022/09/18 11:43:06;;;;;;;10.23;2.05;;;;;;;11.74;97.86;99689.23;1755507;81;21040;-78
2022/09/18 11:46:24;;;;;;;8.78;2.00;;;;;;;11.71;97.40;99687.63;1736139;81;21759;-81
2022/09/18 11:49:10;;;;;;;11.75;1.52;;;;;;;11.73;97.25;99692.33;1736008;81;20992;-79
2022/09/18 11:51:58;;;;;;;8.23;1.82;;;;;;;12.10;98.56;99681.18;1756688;81;21462;-82
2022/09/18 11:55:22;;;;;;;7.15;1.42;;;;;;;12.60;98.73;99677.98;1755584;81;20958;-81
2022/09/18 11:58:03;;;;;;;5.50;1.67;;;;;;;13.16;98.93;99677.78;1695848;84;21537;-79
2022/09/18 12:00:43;;;;;;;5.03;1.55;;;;;;;13.69;98.28;99668.92;1718081;83;21960;-79
2022/09/18 12:03:28;;;;;;;9.10;1.15;;;;;;;13.66;95.69;99669.12;1762172;79;21048;-78
2022/09/18 12:06:29;;;;;;;6.80;1.40;;;;;;;13.51;94.71;99676.18;1755406;80;21039;-77
2022/09/18 12:09:11;;;;;;;5.42;1.27;;;;;;;13.39;94.10;99668.09;1755943;81;21520;-76
2022/09/18 12:12:07;;;;;;;4.65;1.27;;;;;;;13.46;93.21;99676.92;1751944;81;21513;-80
2022/09/18 12:14:49;;;;;;;5.47;1.70;;;;;;;13.56;92.52;99656.53;1756314;81;21164;-78
2022/09/18 12:17:44;;;;;;;4.33;1.15;;;;;;;13.71;91.95;99665.27;1756420;81;21459;-76